GJLL EGNH-EGGW
Flight info
| Callsign | GJLL |
|---|---|
| Flight time | 0h 28m |
| Altitude | 18000 |
| Route | ESTRY/N0405F190 DCT WAL L10 HON L15 FINMA |
| Aircraft | C25C/M-SDE2E3FGHRWXY/LB1 |
Departure
| Time | 2026-04-29 18:00 |
|---|---|
| Airport | Blackpool Airport (EGNH) |
Arrival
| Time | 2026-04-29 18:29 |
|---|---|
| Airport | London Luton Airport (EGGW) |
| Time | Latitude | Longitude | Altitude | Speed | Heading |
|---|---|---|---|---|---|
| 2026-04-29 17:48 | 53.77759 | -3.04152 | 35 ft | 0 kts | 348° |
| 2026-04-29 17:56 | 53.77761 | -3.04169 | 35 ft | 8 kts | 234° |
| 2026-04-29 17:56 | 53.77630 | -3.04185 | 35 ft | 32 kts | 198° |
| 2026-04-29 17:56 | 53.77371 | -3.04392 | 35 ft | 43 kts | 179° |
| 2026-04-29 17:56 | 53.77218 | -3.04091 | 34 ft | 36 kts | 95° |
| 2026-04-29 17:57 | 53.77197 | -3.03698 | 36 ft | 32 kts | 94° |
| 2026-04-29 17:57 | 53.77181 | -3.03356 | 35 ft | 28 kts | 94° |
| 2026-04-29 17:57 | 53.77166 | -3.03044 | 34 ft | 25 kts | 95° |
| 2026-04-29 17:57 | 53.77156 | -3.02853 | 31 ft | 24 kts | 94° |
| 2026-04-29 17:58 | 53.77140 | -3.02496 | 31 ft | 21 kts | 94° |
| 2026-04-29 17:58 | 53.77129 | -3.02269 | 31 ft | 18 kts | 96° |
| 2026-04-29 17:58 | 53.77119 | -3.02074 | 33 ft | 15 kts | 94° |
| 2026-04-29 17:58 | 53.77112 | -3.01902 | 33 ft | 16 kts | 90° |
| 2026-04-29 17:59 | 53.77102 | -3.01711 | 33 ft | 17 kts | 95° |
| 2026-04-29 17:59 | 53.77119 | -3.01515 | 32 ft | 15 kts | 77° |
| 2026-04-29 17:59 | 53.77092 | -3.01514 | 32 ft | 5 kts | 271° |
| 2026-04-29 17:59 | 53.77092 | -3.01521 | 32 ft | 0 kts | 271° |
| 2026-04-29 18:00 | 53.77128 | -3.02244 | 31 ft | 107 kts | 275° |
| 2026-04-29 18:00 | 53.77213 | -3.03940 | 110 ft | 173 kts | 272° |
| 2026-04-29 18:00 | 53.76810 | -3.05654 | 841 ft | 162 kts | 211° |
| 2026-04-29 18:01 | 53.75651 | -3.06673 | 803 ft | 223 kts | 205° |
| 2026-04-29 18:01 | 53.74345 | -3.08699 | 731 ft | 285 kts | 225° |
| 2026-04-29 18:01 | 53.73056 | -3.11578 | 679 ft | 327 kts | 232° |
| 2026-04-29 18:01 | 53.71690 | -3.14846 | 973 ft | 347 kts | 231° |
| 2026-04-29 18:02 | 53.70218 | -3.18067 | 1863 ft | 346 kts | 228° |
| 2026-04-29 18:02 | 53.68726 | -3.21143 | 3111 ft | 331 kts | 223° |
| 2026-04-29 18:02 | 53.66994 | -3.23348 | 4349 ft | 305 kts | 201° |
| 2026-04-29 18:02 | 53.65066 | -3.24469 | 5611 ft | 283 kts | 183° |
| 2026-04-29 18:03 | 53.63174 | -3.24520 | 6859 ft | 263 kts | 169° |
| 2026-04-29 18:03 | 53.61470 | -3.23790 | 8055 ft | 245 kts | 160° |
| 2026-04-29 18:03 | 53.59864 | -3.23096 | 9287 ft | 230 kts | 161° |
| 2026-04-29 18:03 | 53.58367 | -3.22392 | 10516 ft | 220 kts | 160° |
| 2026-04-29 18:04 | 53.56875 | -3.21681 | 11688 ft | 225 kts | 160° |
| 2026-04-29 18:04 | 53.55349 | -3.20963 | 12905 ft | 230 kts | 160° |
| 2026-04-29 18:04 | 53.53797 | -3.20237 | 14189 ft | 232 kts | 160° |
| 2026-04-29 18:04 | 53.52239 | -3.19515 | 15352 ft | 232 kts | 160° |
| 2026-04-29 18:05 | 53.50685 | -3.18793 | 16562 ft | 230 kts | 160° |
| 2026-04-29 18:05 | 53.49149 | -3.18074 | 17799 ft | 230 kts | 160° |
| 2026-04-29 18:05 | 53.47535 | -3.17313 | 18338 ft | 257 kts | 160° |
| 2026-04-29 18:05 | 53.45669 | -3.16436 | 18332 ft | 300 kts | 161° |
| 2026-04-29 18:06 | 53.43532 | -3.15442 | 18340 ft | 336 kts | 161° |
| 2026-04-29 18:06 | 53.41170 | -3.14354 | 18341 ft | 367 kts | 161° |
| 2026-04-29 18:06 | 53.38799 | -3.12508 | 18334 ft | 388 kts | 145° |
| 2026-04-29 18:06 | 53.36656 | -3.09571 | 18338 ft | 406 kts | 137° |
| 2026-04-29 18:07 | 53.34572 | -3.06324 | 18334 ft | 421 kts | 135° |
| 2026-04-29 18:07 | 53.32432 | -3.02886 | 18331 ft | 432 kts | 136° |
| 2026-04-29 18:07 | 53.30206 | -2.99425 | 18328 ft | 440 kts | 136° |
| 2026-04-29 18:07 | 53.27929 | -2.95944 | 18329 ft | 446 kts | 137° |
| 2026-04-29 18:08 | 53.25639 | -2.92415 | 18329 ft | 450 kts | 136° |
| 2026-04-29 18:08 | 53.23340 | -2.88840 | 18328 ft | 453 kts | 136° |
| 2026-04-29 18:08 | 53.21024 | -2.85256 | 18325 ft | 455 kts | 136° |
| 2026-04-29 18:08 | 53.18691 | -2.81677 | 18329 ft | 456 kts | 136° |
| 2026-04-29 18:09 | 53.16351 | -2.78081 | 18327 ft | 457 kts | 136° |
| 2026-04-29 18:09 | 53.14004 | -2.74478 | 18332 ft | 458 kts | 136° |
| 2026-04-29 18:09 | 53.12502 | -2.72170 | 18327 ft | 458 kts | 136° |
| 2026-04-29 18:09 | 53.10154 | -2.68574 | 18326 ft | 459 kts | 136° |
| 2026-04-29 18:10 | 53.07802 | -2.64978 | 18332 ft | 459 kts | 136° |
| 2026-04-29 18:10 | 53.05449 | -2.61391 | 18329 ft | 460 kts | 136° |
| 2026-04-29 18:10 | 53.03091 | -2.57790 | 18322 ft | 460 kts | 136° |
| 2026-04-29 18:10 | 53.00734 | -2.54208 | 18317 ft | 460 kts | 136° |
| 2026-04-29 18:11 | 52.98374 | -2.50617 | 18316 ft | 460 kts | 136° |
| 2026-04-29 18:11 | 52.96808 | -2.48242 | 18313 ft | 461 kts | 136° |
| 2026-04-29 18:11 | 52.93671 | -2.43485 | 18313 ft | 461 kts | 136° |
| 2026-04-29 18:11 | 52.91300 | -2.39906 | 18311 ft | 461 kts | 136° |
| 2026-04-29 18:12 | 52.88929 | -2.36318 | 18310 ft | 462 kts | 136° |
| 2026-04-29 18:12 | 52.87323 | -2.33903 | 18310 ft | 462 kts | 137° |
| 2026-04-29 18:12 | 52.84947 | -2.30316 | 18321 ft | 462 kts | 136° |
| 2026-04-29 18:12 | 52.82559 | -2.26733 | 18322 ft | 463 kts | 137° |
| 2026-04-29 18:13 | 52.80211 | -2.23201 | 18315 ft | 463 kts | 137° |
| 2026-04-29 18:13 | 52.77818 | -2.19619 | 18317 ft | 463 kts | 137° |
| 2026-04-29 18:13 | 52.75670 | -2.16396 | 18319 ft | 463 kts | 137° |
| 2026-04-29 18:13 | 52.73347 | -2.12929 | 18318 ft | 463 kts | 137° |
| 2026-04-29 18:14 | 52.70974 | -2.09384 | 18317 ft | 463 kts | 137° |
| 2026-04-29 18:14 | 52.68564 | -2.05795 | 18316 ft | 463 kts | 137° |
| 2026-04-29 18:14 | 52.66172 | -2.02232 | 18315 ft | 464 kts | 137° |
| 2026-04-29 18:14 | 52.63770 | -1.98663 | 18307 ft | 464 kts | 137° |
| 2026-04-29 18:15 | 52.61374 | -1.95112 | 18303 ft | 464 kts | 137° |
| 2026-04-29 18:15 | 52.59011 | -1.91608 | 18301 ft | 464 kts | 137° |
| 2026-04-29 18:15 | 52.56614 | -1.88067 | 18301 ft | 464 kts | 137° |
| 2026-04-29 18:15 | 52.54218 | -1.84522 | 18300 ft | 464 kts | 137° |
| 2026-04-29 18:16 | 52.51811 | -1.80981 | 18301 ft | 464 kts | 137° |
| 2026-04-29 18:16 | 52.49415 | -1.77446 | 18300 ft | 464 kts | 137° |
| 2026-04-29 18:16 | 52.47010 | -1.73917 | 18299 ft | 464 kts | 137° |
| 2026-04-29 18:16 | 52.44609 | -1.70387 | 18301 ft | 464 kts | 137° |
| 2026-04-29 18:17 | 52.42204 | -1.66867 | 18299 ft | 464 kts | 137° |
| 2026-04-29 18:17 | 52.39798 | -1.63344 | 18300 ft | 464 kts | 137° |
| 2026-04-29 18:17 | 52.37392 | -1.59833 | 18299 ft | 464 kts | 137° |
| 2026-04-29 18:17 | 52.34980 | -1.56309 | 18296 ft | 464 kts | 137° |
| 2026-04-29 18:18 | 52.32572 | -1.52806 | 18336 ft | 464 kts | 137° |
| 2026-04-29 18:18 | 52.30161 | -1.49297 | 18345 ft | 464 kts | 137° |
| 2026-04-29 18:18 | 52.27749 | -1.45794 | 18351 ft | 464 kts | 137° |
| 2026-04-29 18:18 | 52.25332 | -1.42291 | 18355 ft | 464 kts | 137° |
| 2026-04-29 18:19 | 52.22915 | -1.38791 | 18359 ft | 464 kts | 137° |
| 2026-04-29 18:19 | 52.20493 | -1.35291 | 18357 ft | 465 kts | 137° |
| 2026-04-29 18:19 | 52.18075 | -1.31799 | 18355 ft | 465 kts | 137° |
| 2026-04-29 18:19 | 52.15681 | -1.28351 | 18357 ft | 465 kts | 137° |
| 2026-04-29 18:20 | 52.13257 | -1.24859 | 18348 ft | 465 kts | 137° |
| 2026-04-29 18:20 | 52.10836 | -1.21386 | 18340 ft | 465 kts | 137° |
| 2026-04-29 18:20 | 52.08412 | -1.17902 | 18331 ft | 465 kts | 137° |
| 2026-04-29 18:20 | 52.05979 | -1.14423 | 18322 ft | 465 kts | 137° |
| 2026-04-29 18:21 | 52.03553 | -1.10947 | 18306 ft | 465 kts | 137° |
| 2026-04-29 18:21 | 52.01120 | -1.07479 | 18259 ft | 465 kts | 137° |
| 2026-04-29 18:21 | 51.98693 | -1.04018 | 18256 ft | 465 kts | 137° |
| 2026-04-29 18:21 | 51.96261 | -1.00549 | 18253 ft | 465 kts | 137° |
| 2026-04-29 18:22 | 51.93825 | -0.97088 | 18258 ft | 466 kts | 137° |
| 2026-04-29 18:22 | 51.91673 | -0.93216 | 18154 ft | 464 kts | 124° |
| 2026-04-29 18:22 | 51.90205 | -0.88428 | 16436 ft | 488 kts | 109° |
| 2026-04-29 18:22 | 51.89444 | -0.82968 | 14256 ft | 512 kts | 97° |
| 2026-04-29 18:23 | 51.89290 | -0.77096 | 11777 ft | 529 kts | 93° |
| 2026-04-29 18:23 | 51.89257 | -0.71552 | 9809 ft | 425 kts | 85° |
| 2026-04-29 18:23 | 51.89394 | -0.68173 | 9714 ft | 228 kts | 90° |
| 2026-04-29 18:23 | 51.89460 | -0.65808 | 7374 ft | 204 kts | 88° |
| 2026-04-29 18:24 | 51.89119 | -0.63714 | 6466 ft | 166 kts | 108° |
| 2026-04-29 18:24 | 51.88747 | -0.62075 | 4925 ft | 166 kts | 112° |
| 2026-04-29 18:24 | 51.88234 | -0.60450 | 3927 ft | 154 kts | 114° |
| 2026-04-29 18:24 | 51.87741 | -0.59021 | 3183 ft | 137 kts | 117° |
| 2026-04-29 18:25 | 51.87243 | -0.57845 | 2886 ft | 101 kts | 117° |
| 2026-04-29 18:25 | 51.86774 | -0.56572 | 2686 ft | 163 kts | 105° |
| 2026-04-29 18:25 | 51.86493 | -0.54729 | 2634 ft | 166 kts | 102° |
| 2026-04-29 18:25 | 51.86226 | -0.53042 | 2572 ft | 141 kts | 101° |
| 2026-04-29 18:26 | 51.86017 | -0.51575 | 2346 ft | 127 kts | 97° |
| 2026-04-29 18:26 | 51.85896 | -0.50182 | 1955 ft | 127 kts | 93° |
| 2026-04-29 18:26 | 51.85838 | -0.48769 | 1699 ft | 121 kts | 90° |
| 2026-04-29 18:26 | 51.85843 | -0.47450 | 1601 ft | 118 kts | 85° |
| 2026-04-29 18:27 | 51.85921 | -0.46092 | 1459 ft | 126 kts | 81° |
| 2026-04-29 18:27 | 51.86102 | -0.44683 | 1269 ft | 126 kts | 76° |
| 2026-04-29 18:27 | 51.86308 | -0.43457 | 1186 ft | 123 kts | 74° |
| 2026-04-29 18:27 | 51.86540 | -0.42168 | 1064 ft | 125 kts | 76° |
| 2026-04-29 18:28 | 51.86775 | -0.40767 | 878 ft | 132 kts | 75° |
| 2026-04-29 18:28 | 51.87011 | -0.39459 | 712 ft | 110 kts | 75° |
| 2026-04-29 18:28 | 51.87196 | -0.38368 | 550 ft | 95 kts | 74° |
| 2026-04-29 18:28 | 51.87357 | -0.37451 | 516 ft | 72 kts | 73° |
| 2026-04-29 18:29 | 51.87474 | -0.36961 | 516 ft | 28 kts | 33° |
| 2026-04-29 18:29 | 51.87576 | -0.36979 | 515 ft | 22 kts | 327° |
| 2026-04-29 18:29 | 51.87684 | -0.37117 | 515 ft | 0 kts | 343° |